createdAt,value
2019-03-21T00:00:45.295Z,6.90
2019-03-21T00:03:16.697Z,6.87
2019-03-21T00:05:48.170Z,8.00
2019-03-21T00:08:19.527Z,7.40
2019-03-21T00:11:34.455Z,7.50
2019-03-21T00:14:17.336Z,4.97
2019-03-21T00:16:48.724Z,6.50
2019-03-21T00:19:20.065Z,8.03
2019-03-21T00:21:51.588Z,6.23
2019-03-21T00:24:22.990Z,8.47
2019-03-21T00:26:54.506Z,5.63
2019-03-21T00:29:25.957Z,5.27
2019-03-21T00:31:57.503Z,5.80
2019-03-21T00:34:29.024Z,5.93
2019-03-21T00:37:00.501Z,5.23
2019-03-21T00:39:32.971Z,6.67
2019-03-21T00:42:04.650Z,9.17
2019-03-21T00:44:36.083Z,5.50
2019-03-21T00:47:07.609Z,7.70
2019-03-21T00:49:38.980Z,7.23
2019-03-21T00:52:10.558Z,4.60
2019-03-21T00:54:42.072Z,5.87
2019-03-21T00:57:13.453Z,5.50
2019-03-21T00:59:44.813Z,5.70
2019-03-21T01:02:17.817Z,5.33
2019-03-21T01:04:49.210Z,5.47
2019-03-21T01:07:20.712Z,7.80
2019-03-21T01:09:52.073Z,5.83
2019-03-21T01:12:23.484Z,5.47
2019-03-21T01:14:54.857Z,5.03
2019-03-21T01:17:26.251Z,6.70
2019-03-21T01:19:57.580Z,6.43
2019-03-21T01:22:29.066Z,6.77
2019-03-21T01:25:00.432Z,4.97
2019-03-21T01:27:31.961Z,5.57
2019-03-21T01:30:03.328Z,6.17
2019-03-21T01:32:34.898Z,5.63
2019-03-21T01:35:06.674Z,5.13
2019-03-21T01:37:38.056Z,5.80
2019-03-21T01:40:13.558Z,5.50
2019-03-21T01:42:44.959Z,5.13
2019-03-21T01:45:19.503Z,5.07
2019-03-21T01:47:51.686Z,5.53
2019-03-21T01:50:23.739Z,5.33
2019-03-21T01:52:55.107Z,4.97
2019-03-21T01:55:26.462Z,6.23
2019-03-21T01:57:57.875Z,5.80
2019-03-21T02:00:33.236Z,5.13
2019-03-21T02:03:04.600Z,5.20
2019-03-21T02:05:36.186Z,6.97
2019-03-21T02:08:07.814Z,4.60
2019-03-21T02:10:39.374Z,5.80
2019-03-21T02:13:10.763Z,5.37
2019-03-21T02:15:42.102Z,5.20
2019-03-21T02:18:13.582Z,5.73
2019-03-21T02:20:44.946Z,4.67
2019-03-21T02:23:16.562Z,5.47
2019-03-21T02:25:48.020Z,5.73
2019-03-21T02:28:19.449Z,5.67
2019-03-21T02:30:51.026Z,5.73
2019-03-21T02:33:27.636Z,4.77
2019-03-21T02:35:59.201Z,6.00
2019-03-21T02:38:30.630Z,5.40
2019-03-21T02:41:04.676Z,6.93
2019-03-21T02:43:36.043Z,5.73
2019-03-21T02:46:07.580Z,5.53
2019-03-21T02:48:39.101Z,5.13
2019-03-21T02:51:10.531Z,4.87
2019-03-21T02:53:41.999Z,5.53
2019-03-21T02:56:15.724Z,4.77
2019-03-21T02:58:47.110Z,4.47
2019-03-21T03:01:18.499Z,5.77
2019-03-21T03:03:50.040Z,4.40
2019-03-21T03:06:21.449Z,6.30
2019-03-21T03:08:52.816Z,4.80
2019-03-21T03:11:24.470Z,6.83
2019-03-21T03:13:56.109Z,4.70
2019-03-21T03:16:27.670Z,7.20
2019-03-21T03:18:59.094Z,5.57
2019-03-21T03:21:30.656Z,6.00
2019-03-21T03:24:02.116Z,9.33
2019-03-21T03:26:33.523Z,6.03
2019-03-21T03:29:04.953Z,5.40
2019-03-21T03:31:36.427Z,4.60
2019-03-21T03:34:07.764Z,4.80
2019-03-21T03:36:39.132Z,5.27
2019-03-21T03:39:11.159Z,5.80
2019-03-21T03:41:42.528Z,4.83
2019-03-21T03:44:13.888Z,4.73
2019-03-21T03:46:45.262Z,5.53
2019-03-21T03:49:16.744Z,5.90
2019-03-21T03:51:48.137Z,6.93
2019-03-21T03:54:19.676Z,5.23
2019-03-21T03:56:51.287Z,4.97
2019-03-21T03:59:23.094Z,7.93
2019-03-21T04:01:54.569Z,5.40
2019-03-21T04:04:26.178Z,6.23
2019-03-21T04:06:58.203Z,4.93
2019-03-21T04:09:29.964Z,4.97
2019-03-21T04:12:01.347Z,6.57
2019-03-21T04:14:32.780Z,4.33
2019-03-21T04:17:04.263Z,4.67
2019-03-21T04:19:35.596Z,5.23
2019-03-21T04:22:07.028Z,5.63
2019-03-21T04:24:38.375Z,4.80
2019-03-21T04:27:09.825Z,4.63
2019-03-21T04:29:41.255Z,5.80
2019-03-21T04:32:12.777Z,6.57
2019-03-21T04:34:44.215Z,4.80
2019-03-21T04:37:15.710Z,6.20
2019-03-21T04:39:47.079Z,7.07
2019-03-21T04:42:18.477Z,4.57
2019-03-21T04:44:49.814Z,5.47
2019-03-21T04:47:21.266Z,8.10
2019-03-21T04:49:52.781Z,6.03
2019-03-21T04:52:24.184Z,5.70
2019-03-21T04:54:55.768Z,4.17
2019-03-21T04:57:27.376Z,4.60
2019-03-21T04:59:58.954Z,4.80
2019-03-21T05:02:30.306Z,5.57
2019-03-21T05:05:01.817Z,5.07
2019-03-21T05:07:33.341Z,5.23
2019-03-21T05:10:05.142Z,7.10
2019-03-21T05:12:36.545Z,5.50
2019-03-21T05:15:11.781Z,6.03
2019-03-21T05:17:43.397Z,5.33
2019-03-21T05:20:18.664Z,5.17
2019-03-21T05:22:50.392Z,6.30
2019-03-21T05:25:21.753Z,6.33
2019-03-21T05:27:53.202Z,6.13
2019-03-21T05:30:30.472Z,5.83
2019-03-21T05:33:02.155Z,5.37
2019-03-21T05:35:33.512Z,5.93
2019-03-21T05:38:04.920Z,5.67
2019-03-21T05:40:36.279Z,6.67
2019-03-21T05:43:13.064Z,5.53
2019-03-21T05:45:44.487Z,5.27
2019-03-21T05:48:15.857Z,4.70
2019-03-21T05:50:47.200Z,4.97
2019-03-21T05:53:18.635Z,5.17
2019-03-21T05:55:50.022Z,5.07
2019-03-21T05:58:21.461Z,6.07
2019-03-21T06:00:53.047Z,6.07
2019-03-21T06:03:29.250Z,5.97
2019-03-21T06:06:13.097Z,6.07
2019-03-21T06:08:44.765Z,7.17
2019-03-21T06:11:16.127Z,6.00
2019-03-21T06:13:47.545Z,5.47
2019-03-21T06:16:18.920Z,6.40
2019-03-21T06:19:41.472Z,5.47
2019-03-21T06:23:23.380Z,5.50
2019-03-21T06:26:15.496Z,4.93
2019-03-21T06:28:46.870Z,6.80
2019-03-21T06:31:18.517Z,6.00
2019-03-21T06:33:49.969Z,6.50
2019-03-21T06:36:21.369Z,6.77
2019-03-21T06:38:52.721Z,7.80
2019-03-21T06:41:25.901Z,8.53
2019-03-21T06:43:57.442Z,5.90
2019-03-21T06:46:28.800Z,6.20
2019-03-21T06:49:00.158Z,5.90
2019-03-21T06:51:31.553Z,5.47
2019-03-21T06:54:03.046Z,5.63
2019-03-21T06:56:34.472Z,6.13
2019-03-21T06:59:05.974Z,6.73
2019-03-21T07:01:37.343Z,9.73
2019-03-21T07:04:08.706Z,6.90
2019-03-21T07:06:40.085Z,6.53
2019-03-21T07:09:11.687Z,5.53
2019-03-21T07:11:43.094Z,7.07
2019-03-21T07:14:14.446Z,6.13
2019-03-21T07:16:46.018Z,7.47
2019-03-21T07:19:17.401Z,6.13
2019-03-21T07:21:49.016Z,9.07
2019-03-21T07:24:20.384Z,7.50
2019-03-21T07:26:51.775Z,6.92
2019-03-21T07:29:23.121Z,5.33
2019-03-21T07:31:54.615Z,8.03
2019-03-21T07:34:26.066Z,6.57
2019-03-21T07:36:57.567Z,8.17
2019-03-21T07:39:30.725Z,6.80
2019-03-21T07:42:02.383Z,7.03
2019-03-21T07:44:33.744Z,8.30
2019-03-21T07:47:12.720Z,7.78
2019-03-21T07:49:38.404Z,7.73
2019-03-21T07:52:09.786Z,8.20
2019-03-21T07:54:41.122Z,6.97
2019-03-21T07:57:12.679Z,7.07
2019-03-21T07:59:51.180Z,7.43
2019-03-21T08:02:22.582Z,8.75
2019-03-21T08:04:54.067Z,8.50
2019-03-21T08:07:25.548Z,6.00
2019-03-21T08:09:56.993Z,6.47
2019-03-21T08:12:28.377Z,8.48
2019-03-21T08:14:59.748Z,6.28
2019-03-21T08:17:31.165Z,5.93
2019-03-21T08:20:02.638Z,8.08
2019-03-21T08:22:34.740Z,7.58
2019-03-21T08:25:07.324Z,6.03
2019-03-21T08:27:39.114Z,8.38
2019-03-21T08:30:20.710Z,7.90
2019-03-21T08:32:52.160Z,7.17
2019-03-21T08:35:23.514Z,6.78
2019-03-21T08:37:55.005Z,6.65
2019-03-21T08:40:26.448Z,7.33
2019-03-21T08:42:57.892Z,7.05
2019-03-21T08:45:29.354Z,7.42
2019-03-21T08:48:00.783Z,7.30
2019-03-21T08:50:32.136Z,7.28
2019-03-21T08:53:03.687Z,8.03
2019-03-21T08:55:35.039Z,7.37
2019-03-21T08:58:06.449Z,8.95
2019-03-21T09:00:37.980Z,8.77
2019-03-21T09:03:09.468Z,10.00
2019-03-21T09:05:40.861Z,8.95
2019-03-21T09:08:12.265Z,10.08
2019-03-21T09:10:43.644Z,12.85
2019-03-21T09:13:15.177Z,11.63
2019-03-21T09:15:47.101Z,9.18
2019-03-21T09:18:18.460Z,9.85
2019-03-21T09:20:49.831Z,11.70
2019-03-21T09:23:21.228Z,10.45
2019-03-21T09:25:52.660Z,10.60
2019-03-21T09:28:24.061Z,12.30
2019-03-21T09:30:56.620Z,10.18
2019-03-21T09:33:28.364Z,9.83
2019-03-21T09:35:59.728Z,9.30
2019-03-21T09:38:31.103Z,9.70
2019-03-21T09:41:02.570Z,11.33
2019-03-21T09:43:34.062Z,10.13
2019-03-21T09:46:05.654Z,11.88
2019-03-21T09:48:37.359Z,9.05
2019-03-21T09:51:08.855Z,10.32
2019-03-21T09:53:40.287Z,8.93
2019-03-21T09:56:11.689Z,11.20
2019-03-21T09:58:43.275Z,11.43
2019-03-21T10:01:14.635Z,9.95
2019-03-21T10:03:46.002Z,10.55
2019-03-21T10:06:17.508Z,10.88
2019-03-21T10:08:48.865Z,12.93
2019-03-21T10:11:20.225Z,9.68
2019-03-21T10:13:51.719Z,10.13
2019-03-21T10:16:23.097Z,10.80
2019-03-21T10:18:54.493Z,10.23
2019-03-21T10:21:25.864Z,9.73
2019-03-21T10:23:57.323Z,10.68
2019-03-21T10:26:28.709Z,10.25
2019-03-21T10:29:00.098Z,9.75
2019-03-21T10:31:31.479Z,12.07
2019-03-21T10:34:02.974Z,11.83
2019-03-21T10:36:34.449Z,9.40
2019-03-21T10:39:07.974Z,10.40
2019-03-21T10:41:39.430Z,10.38
2019-03-21T10:44:12.384Z,10.98
2019-03-21T10:46:43.792Z,10.35
2019-03-21T10:49:15.264Z,10.65
2019-03-21T10:51:54.867Z,9.58
2019-03-21T10:54:19.815Z,9.03
2019-03-21T10:56:51.292Z,10.75
2019-03-21T10:59:22.722Z,10.05
2019-03-21T11:01:54.194Z,10.53
2019-03-21T11:04:25.574Z,10.55
2019-03-21T11:07:02.756Z,9.53
2019-03-21T11:09:34.158Z,8.98
2019-03-21T11:12:05.869Z,9.10
2019-03-21T11:14:37.345Z,9.68
2019-03-21T11:17:08.890Z,8.88
2019-03-21T11:19:40.328Z,9.85
2019-03-21T11:22:11.689Z,8.75
2019-03-21T11:24:43.067Z,8.78
2019-03-21T11:27:14.584Z,8.98
2019-03-21T11:29:45.984Z,8.23
2019-03-21T11:32:17.405Z,8.50
2019-03-21T11:34:48.834Z,8.40
2019-03-21T11:37:20.241Z,10.28
2019-03-21T11:39:51.632Z,8.68
2019-03-21T11:42:23.078Z,8.13
2019-03-21T11:44:57.002Z,8.83
2019-03-21T11:47:42.066Z,8.70
2019-03-21T11:50:30.271Z,7.60
2019-03-21T11:53:28.521Z,9.08
2019-03-21T11:55:55.888Z,7.33
2019-03-21T11:58:27.309Z,6.05
2019-03-21T12:00:58.790Z,8.90
2019-03-21T12:03:30.721Z,8.85
2019-03-21T12:06:02.421Z,8.73
2019-03-21T12:08:34.036Z,8.53
2019-03-21T12:11:06.219Z,8.45
2019-03-21T12:13:38.071Z,8.80
2019-03-21T12:16:09.612Z,8.40
2019-03-21T12:18:41.185Z,9.80
2019-03-21T12:21:12.608Z,7.70
2019-03-21T12:23:45.181Z,8.38
2019-03-21T12:26:16.595Z,7.55
2019-03-21T12:28:49.061Z,9.15
2019-03-21T12:31:20.444Z,7.22
2019-03-21T12:33:51.926Z,8.08
2019-03-21T12:36:23.333Z,8.88
2019-03-21T12:38:54.785Z,7.33
2019-03-21T12:41:26.304Z,7.97
2019-03-21T12:43:57.682Z,8.65
2019-03-21T12:46:30.969Z,7.90
2019-03-21T12:49:02.336Z,7.65
2019-03-21T12:51:36.097Z,7.17
2019-03-21T12:54:07.641Z,7.20
2019-03-21T12:56:39.209Z,8.40
2019-03-21T12:59:10.623Z,7.80
2019-03-21T13:01:42.129Z,6.58
2019-03-21T13:04:13.494Z,6.28
2019-03-21T13:06:45.038Z,6.72
2019-03-21T13:09:16.572Z,7.87
2019-03-21T13:11:48.050Z,7.40
2019-03-21T13:14:19.423Z,7.78
2019-03-21T13:16:50.954Z,7.80
2019-03-21T13:19:23.552Z,6.87
2019-03-21T13:21:55.101Z,7.67
2019-03-21T13:24:26.443Z,7.78
2019-03-21T13:27:00.044Z,7.15
2019-03-21T13:29:31.060Z,7.85
2019-03-21T13:32:02.577Z,6.80
2019-03-21T13:34:34.050Z,7.33
2019-03-21T13:37:05.558Z,7.30
2019-03-21T13:39:36.914Z,6.05
2019-03-21T13:42:08.299Z,6.22
2019-03-21T13:44:39.921Z,7.03
2019-03-21T13:47:11.451Z,7.12
2019-03-21T13:49:42.901Z,6.28
2019-03-21T13:52:14.375Z,5.35
2019-03-21T13:54:45.798Z,5.45
2019-03-21T13:57:17.236Z,7.00
2019-03-21T13:59:48.736Z,6.50
2019-03-21T14:02:20.119Z,7.12
2019-03-21T14:04:51.492Z,6.62
2019-03-21T14:07:23.099Z,6.87
2019-03-21T14:09:54.478Z,6.37
2019-03-21T14:12:25.864Z,7.45
2019-03-21T14:14:57.380Z,6.33
2019-03-21T14:17:29.032Z,6.37
2019-03-21T14:20:00.417Z,6.65
2019-03-21T14:22:31.920Z,5.97
2019-03-21T14:25:03.325Z,6.03
2019-03-21T14:27:34.800Z,5.47
2019-03-21T14:30:07.637Z,7.62
2019-03-21T14:32:38.983Z,6.40
2019-03-21T14:35:12.203Z,5.87
2019-03-21T14:37:43.756Z,8.08
2019-03-21T14:40:15.822Z,7.53
2019-03-21T14:42:47.221Z,6.20
2019-03-21T14:45:19.230Z,4.93
2019-03-21T14:47:50.717Z,6.05
2019-03-21T14:50:22.114Z,5.35
2019-03-21T14:52:53.509Z,5.30
2019-03-21T14:55:24.996Z,6.15
2019-03-21T14:57:56.379Z,5.92
2019-03-21T15:00:27.905Z,6.05
2019-03-21T15:02:59.344Z,5.75
2019-03-21T15:05:30.973Z,6.35
2019-03-21T15:08:02.425Z,5.83
2019-03-21T15:10:33.825Z,6.60
2019-03-21T15:13:05.368Z,9.30
2019-03-21T15:15:36.859Z,6.42
2019-03-21T15:18:08.199Z,6.75
2019-03-21T15:20:39.622Z,7.30
2019-03-21T15:23:10.976Z,7.40
2019-03-21T15:25:42.457Z,6.00
2019-03-21T15:28:13.921Z,6.10
2019-03-21T15:30:45.355Z,6.65
2019-03-21T15:33:16.822Z,6.90
2019-03-21T15:35:48.276Z,6.22
2019-03-21T15:38:19.797Z,9.00
2019-03-21T15:41:10.026Z,8.58
2019-03-21T15:43:41.444Z,6.50
2019-03-21T15:46:12.835Z,6.08
2019-03-21T15:48:44.197Z,7.12
2019-03-21T15:51:15.712Z,6.50
2019-03-21T15:53:54.813Z,7.20
2019-03-21T15:56:20.190Z,6.05
2019-03-21T15:58:51.597Z,6.00
2019-03-21T16:01:23.147Z,7.80
2019-03-21T16:03:54.611Z,6.45
2019-03-21T16:06:26.114Z,6.65
2019-03-21T16:08:57.690Z,5.92
2019-03-21T16:11:29.086Z,7.47
2019-03-21T16:14:00.463Z,6.65
2019-03-21T16:16:31.976Z,7.37
2019-03-21T16:19:03.509Z,7.33
2019-03-21T16:21:34.971Z,5.83
2019-03-21T16:24:06.530Z,8.00
2019-03-21T16:26:37.932Z,6.60
2019-03-21T16:29:10.354Z,6.30
2019-03-21T16:31:42.019Z,9.48
2019-03-21T16:34:13.774Z,5.95
2019-03-21T16:36:45.183Z,6.33
2019-03-21T16:39:16.781Z,7.35
2019-03-21T16:41:48.243Z,8.20
2019-03-21T16:44:19.735Z,9.38
2019-03-21T16:46:51.251Z,9.00
2019-03-21T16:49:22.662Z,9.63
2019-03-21T16:51:54.057Z,8.40
2019-03-21T16:54:25.424Z,9.13
2019-03-21T16:56:56.820Z,9.40
2019-03-21T16:59:28.207Z,11.20
2019-03-21T17:01:59.785Z,8.48
2019-03-21T17:04:32.143Z,8.95
2019-03-21T17:07:03.641Z,9.33
2019-03-21T17:09:34.990Z,9.18
2019-03-21T17:12:06.463Z,9.18
2019-03-21T17:14:37.812Z,9.55
2019-03-21T17:17:09.277Z,10.23
2019-03-21T17:19:40.630Z,11.65
2019-03-21T17:22:12.045Z,10.05
2019-03-21T17:24:43.554Z,11.60
2019-03-21T17:27:15.061Z,9.63
2019-03-21T17:29:46.514Z,9.10
2019-03-21T17:32:18.003Z,9.90
2019-03-21T17:34:49.418Z,12.30
2019-03-21T17:37:20.967Z,13.32
2019-03-21T17:39:52.398Z,12.95
2019-03-21T17:42:23.859Z,13.75
2019-03-21T17:44:55.352Z,13.00
2019-03-21T17:47:26.975Z,12.88
2019-03-21T17:49:58.420Z,11.48
2019-03-21T17:52:29.840Z,9.45
2019-03-21T17:55:01.290Z,10.30
2019-03-21T17:57:34.775Z,9.10
2019-03-21T18:00:08.816Z,10.25
2019-03-21T18:02:40.372Z,11.73
2019-03-21T18:05:12.090Z,9.38
2019-03-21T18:07:43.484Z,8.50
2019-03-21T18:10:33.022Z,9.78
2019-03-21T18:13:05.721Z,10.28
2019-03-21T18:15:37.089Z,8.68
2019-03-21T18:18:08.599Z,9.63
2019-03-21T18:20:39.971Z,10.10
2019-03-21T18:23:11.453Z,9.23
2019-03-21T18:25:42.907Z,10.55
2019-03-21T18:28:14.297Z,11.78
2019-03-21T18:30:46.738Z,9.83
2019-03-21T18:33:19.411Z,9.13
2019-03-21T18:35:51.378Z,8.40
2019-03-21T18:38:22.821Z,9.18
2019-03-21T18:40:54.231Z,8.88
2019-03-21T18:43:25.783Z,9.30
2019-03-21T18:45:57.179Z,11.30
2019-03-21T18:48:28.561Z,10.13
2019-03-21T18:51:00.123Z,10.03
2019-03-21T18:53:31.528Z,9.45
2019-03-21T18:56:02.933Z,10.75
2019-03-21T18:58:34.434Z,11.20
2019-03-21T19:01:05.913Z,10.65
2019-03-21T19:03:37.435Z,10.20
2019-03-21T19:06:08.889Z,10.15
2019-03-21T19:08:40.295Z,12.10
2019-03-21T19:11:11.784Z,10.00
2019-03-21T19:13:43.193Z,10.03
2019-03-21T19:16:14.593Z,10.28
2019-03-21T19:18:46.077Z,11.00
2019-03-21T19:21:17.436Z,10.13
2019-03-21T19:23:48.956Z,9.93
2019-03-21T19:26:20.456Z,9.65
2019-03-21T19:28:52.031Z,10.58
2019-03-21T19:31:23.401Z,10.63
2019-03-21T19:33:54.838Z,10.65
2019-03-21T19:36:26.276Z,10.10
2019-03-21T19:38:57.619Z,9.80
2019-03-21T19:41:29.101Z,10.00
2019-03-21T19:44:00.616Z,11.78
2019-03-21T19:46:32.206Z,11.83
2019-03-21T19:49:03.621Z,11.90
2019-03-21T19:51:35.011Z,12.70
2019-03-21T19:54:06.473Z,13.15
2019-03-21T19:56:37.975Z,12.68
2019-03-21T19:59:09.654Z,13.00
2019-03-21T20:01:41.225Z,13.88
2019-03-21T20:04:12.583Z,12.68
2019-03-21T20:06:43.980Z,16.10
2019-03-21T20:09:15.417Z,13.08
2019-03-21T20:11:46.916Z,12.88
2019-03-21T20:14:18.329Z,12.53
2019-03-21T20:16:49.780Z,11.53
2019-03-21T20:19:21.241Z,11.65
2019-03-21T20:21:52.746Z,11.60
2019-03-21T20:24:24.661Z,13.83
2019-03-21T20:26:56.296Z,12.33
2019-03-21T20:29:27.727Z,11.88
2019-03-21T20:31:59.136Z,11.00
2019-03-21T20:34:30.497Z,11.10
2019-03-21T20:37:01.896Z,12.97
2019-03-21T20:39:33.336Z,11.05
2019-03-21T20:42:04.762Z,10.85
2019-03-21T20:44:36.175Z,10.80
2019-03-21T20:47:07.578Z,11.10
2019-03-21T20:49:38.999Z,10.25
2019-03-21T20:52:10.416Z,10.65
2019-03-21T20:54:41.794Z,11.40
2019-03-21T20:57:13.274Z,10.88
2019-03-21T20:59:44.795Z,11.05
2019-03-21T21:02:16.256Z,11.60
2019-03-21T21:04:47.744Z,10.20
2019-03-21T21:07:19.310Z,11.33
2019-03-21T21:09:50.685Z,10.93
2019-03-21T21:12:22.206Z,10.75
2019-03-21T21:14:53.597Z,10.68
2019-03-21T21:17:25.005Z,11.15
2019-03-21T21:19:56.386Z,11.20
2019-03-21T21:22:27.969Z,10.80
2019-03-21T21:25:01.943Z,11.68
2019-03-21T21:27:33.356Z,10.88
2019-03-21T21:30:05.690Z,11.95
2019-03-21T21:32:37.623Z,10.95
2019-03-21T21:35:10.191Z,11.03
2019-03-21T21:37:41.868Z,11.28
2019-03-21T21:40:14.485Z,12.20
2019-03-21T21:42:46.121Z,10.50
2019-03-21T21:45:18.442Z,11.07
2019-03-21T21:47:51.692Z,10.43
2019-03-21T21:50:23.129Z,11.78
2019-03-21T21:52:54.570Z,10.53
2019-03-21T21:55:26.139Z,11.57
2019-03-21T21:57:57.614Z,11.20
2019-03-21T22:00:29.046Z,13.58
2019-03-21T22:03:00.575Z,12.00
2019-03-21T22:05:32.295Z,12.13
2019-03-21T22:08:03.667Z,12.03
2019-03-21T22:10:35.079Z,11.78
2019-03-21T22:13:06.593Z,12.00
2019-03-21T22:15:38.038Z,11.75
2019-03-21T22:18:09.419Z,11.95
2019-03-21T22:20:40.890Z,11.28
2019-03-21T22:23:12.509Z,12.03
2019-03-21T22:25:43.987Z,11.00
2019-03-21T22:28:15.395Z,12.63
2019-03-21T22:30:46.795Z,11.43
2019-03-21T22:33:18.196Z,11.55
2019-03-21T22:35:49.651Z,12.10
2019-03-21T22:38:21.212Z,11.05
2019-03-21T22:40:52.728Z,11.25
2019-03-21T22:43:24.228Z,12.40
2019-03-21T22:45:55.656Z,11.80
2019-03-21T22:48:27.061Z,12.40
2019-03-21T22:50:58.602Z,12.35
2019-03-21T22:53:30.309Z,12.28
2019-03-21T22:56:01.711Z,11.80
2019-03-21T22:58:33.193Z,12.90
2019-03-21T23:01:04.775Z,12.28
2019-03-21T23:03:36.236Z,13.77
2019-03-21T23:06:07.596Z,12.73
2019-03-21T23:08:39.010Z,11.95
2019-03-21T23:11:10.391Z,11.88
2019-03-21T23:13:41.914Z,11.67
2019-03-21T23:16:13.380Z,11.68
2019-03-21T23:18:44.787Z,12.25
2019-03-21T23:21:16.199Z,11.80
2019-03-21T23:23:47.592Z,11.33
2019-03-21T23:26:19.068Z,14.60
2019-03-21T23:28:50.638Z,13.23
2019-03-21T23:31:22.079Z,12.10
2019-03-21T23:33:53.495Z,12.60
2019-03-21T23:36:24.937Z,12.00
2019-03-21T23:38:56.377Z,12.43
2019-03-21T23:41:27.695Z,13.15
2019-03-21T23:43:59.205Z,12.03
2019-03-21T23:46:30.624Z,12.53
2019-03-21T23:49:02.127Z,11.77
2019-03-21T23:51:33.589Z,11.97
2019-03-21T23:54:05.195Z,13.37
2019-03-21T23:56:36.614Z,12.40
2019-03-21T23:59:08.039Z,13.57
